sensor_id;sensor_type;location;lat;lon;timestamp;pressure;altitude;pressure_sealevel;temperature;humidity
6208;BME280;3137;51.550;7.060;2023-09-30T00:01:27;102204.59;;;12.34;88.95
6208;BME280;3137;51.550;7.060;2023-09-30T00:03:54;102197.78;;;12.30;88.88
6208;BME280;3137;51.550;7.060;2023-09-30T00:06:21;102199.84;;;12.26;88.88
6208;BME280;3137;51.550;7.060;2023-09-30T00:08:47;102208.03;;;12.25;88.83
6208;BME280;3137;51.550;7.060;2023-09-30T00:11:16;102209.88;;;12.24;89.17
6208;BME280;3137;51.550;7.060;2023-09-30T00:13:43;102213.88;;;12.30;89.04
6208;BME280;3137;51.550;7.060;2023-09-30T00:16:10;102216.63;;;12.40;88.10
6208;BME280;3137;51.550;7.060;2023-09-30T00:18:36;102218.94;;;12.44;87.31
6208;BME280;3137;51.550;7.060;2023-09-30T00:21:03;102226.38;;;12.52;86.50
6208;BME280;3137;51.550;7.060;2023-09-30T00:23:29;102229.06;;;12.41;86.44
6208;BME280;3137;51.550;7.060;2023-09-30T00:25:56;102225.72;;;12.16;87.50
6208;BME280;3137;51.550;7.060;2023-09-30T00:28:22;102218.09;;;12.01;88.00
6208;BME280;3137;51.550;7.060;2023-09-30T00:30:49;102214.94;;;11.96;88.55
6208;BME280;3137;51.550;7.060;2023-09-30T00:33:17;102219.53;;;11.94;88.90
6208;BME280;3137;51.550;7.060;2023-09-30T00:35:43;102201.53;;;11.96;89.10
6208;BME280;3137;51.550;7.060;2023-09-30T00:38:09;102199.94;;;11.93;89.35
6208;BME280;3137;51.550;7.060;2023-09-30T00:40:37;102208.13;;;11.92;89.59
6208;BME280;3137;51.550;7.060;2023-09-30T00:43:03;102225.06;;;11.92;90.13
6208;BME280;3137;51.550;7.060;2023-09-30T00:45:30;102217.97;;;11.91;89.74
6208;BME280;3137;51.550;7.060;2023-09-30T00:47:56;102222.38;;;11.92;89.79
6208;BME280;3137;51.550;7.060;2023-09-30T00:50:23;102215.41;;;11.89;89.90
6208;BME280;3137;51.550;7.060;2023-09-30T00:52:50;102210.78;;;11.92;90.00
6208;BME280;3137;51.550;7.060;2023-09-30T00:55:17;102209.09;;;11.90;90.05
6208;BME280;3137;51.550;7.060;2023-09-30T00:57:44;102217.00;;;11.92;90.10
6208;BME280;3137;51.550;7.060;2023-09-30T01:00:12;102229.56;;;11.92;90.08
6208;BME280;3137;51.550;7.060;2023-09-30T01:02:39;102240.88;;;11.95;90.02
6208;BME280;3137;51.550;7.060;2023-09-30T01:05:08;102238.78;;;11.99;90.40
6208;BME280;3137;51.550;7.060;2023-09-30T01:07:35;102240.50;;;12.00;90.39
6208;BME280;3137;51.550;7.060;2023-09-30T01:10:02;102230.38;;;12.03;90.35
6208;BME280;3137;51.550;7.060;2023-09-30T01:12:29;102238.31;;;12.05;90.41
6208;BME280;3137;51.550;7.060;2023-09-30T01:14:58;102234.41;;;12.09;90.53
6208;BME280;3137;51.550;7.060;2023-09-30T01:17:26;102226.59;;;12.06;90.25
6208;BME280;3137;51.550;7.060;2023-09-30T01:19:57;102225.63;;;12.07;90.03
6208;BME280;3137;51.550;7.060;2023-09-30T01:22:25;102210.50;;;12.06;90.19
6208;BME280;3137;51.550;7.060;2023-09-30T01:24:51;102210.66;;;12.04;90.71
6208;BME280;3137;51.550;7.060;2023-09-30T01:27:17;102215.88;;;12.06;90.73
6208;BME280;3137;51.550;7.060;2023-09-30T01:29:45;102217.59;;;12.07;90.59
6208;BME280;3137;51.550;7.060;2023-09-30T01:32:13;102223.75;;;12.18;89.46
6208;BME280;3137;51.550;7.060;2023-09-30T01:34:41;102226.38;;;12.09;89.68
6208;BME280;3137;51.550;7.060;2023-09-30T01:37:09;102223.91;;;12.17;89.15
6208;BME280;3137;51.550;7.060;2023-09-30T01:39:35;102240.22;;;12.14;89.05
6208;BME280;3137;51.550;7.060;2023-09-30T01:42:02;102249.38;;;12.11;89.31
6208;BME280;3137;51.550;7.060;2023-09-30T01:44:32;102256.94;;;12.06;89.04
6208;BME280;3137;51.550;7.060;2023-09-30T01:46:59;102263.16;;;12.07;89.11
6208;BME280;3137;51.550;7.060;2023-09-30T01:49:25;102252.31;;;11.86;89.57
6208;BME280;3137;51.550;7.060;2023-09-30T01:51:54;102231.72;;;11.75;90.02
6208;BME280;3137;51.550;7.060;2023-09-30T01:54:20;102227.47;;;11.73;90.42
6208;BME280;3137;51.550;7.060;2023-09-30T01:56:47;102245.75;;;11.79;90.87
6208;BME280;3137;51.550;7.060;2023-09-30T01:59:13;102254.38;;;12.16;89.86
6208;BME280;3137;51.550;7.060;2023-09-30T02:01:40;102246.06;;;12.19;88.80
6208;BME280;3137;51.550;7.060;2023-09-30T02:04:06;102246.44;;;12.14;88.85
6208;BME280;3137;51.550;7.060;2023-09-30T02:06:33;102251.72;;;12.05;89.47
6208;BME280;3137;51.550;7.060;2023-09-30T02:09:00;102265.13;;;12.05;89.24
6208;BME280;3137;51.550;7.060;2023-09-30T02:11:27;102263.91;;;11.86;89.82
6208;BME280;3137;51.550;7.060;2023-09-30T02:13:54;102262.41;;;11.71;90.47
6208;BME280;3137;51.550;7.060;2023-09-30T02:16:21;102268.84;;;11.69;90.60
6208;BME280;3137;51.550;7.060;2023-09-30T02:18:49;102266.44;;;11.66;91.21
6208;BME280;3137;51.550;7.060;2023-09-30T02:21:17;102259.72;;;11.60;91.30
6208;BME280;3137;51.550;7.060;2023-09-30T02:23:44;102260.69;;;11.59;91.57
6208;BME280;3137;51.550;7.060;2023-09-30T02:26:15;102258.16;;;11.58;91.69
6208;BME280;3137;51.550;7.060;2023-09-30T02:28:41;102257.41;;;11.56;92.11
6208;BME280;3137;51.550;7.060;2023-09-30T02:31:07;102245.97;;;11.54;92.10
6208;BME280;3137;51.550;7.060;2023-09-30T02:33:34;102242.66;;;11.50;91.98
6208;BME280;3137;51.550;7.060;2023-09-30T02:36:08;102233.78;;;11.50;92.43
6208;BME280;3137;51.550;7.060;2023-09-30T02:38:35;102239.25;;;11.48;92.19
6208;BME280;3137;51.550;7.060;2023-09-30T02:41:04;102240.13;;;11.49;92.51
6208;BME280;3137;51.550;7.060;2023-09-30T02:43:31;102238.16;;;11.51;92.42
6208;BME280;3137;51.550;7.060;2023-09-30T02:45:59;102232.69;;;11.52;92.58
6208;BME280;3137;51.550;7.060;2023-09-30T02:48:25;102231.38;;;11.58;92.39
6208;BME280;3137;51.550;7.060;2023-09-30T02:50:52;102242.44;;;11.75;90.81
6208;BME280;3137;51.550;7.060;2023-09-30T02:53:20;102244.53;;;11.72;89.25
6208;BME280;3137;51.550;7.060;2023-09-30T02:55:46;102257.75;;;11.51;89.70
6208;BME280;3137;51.550;7.060;2023-09-30T02:58:12;102274.78;;;11.50;90.33
6208;BME280;3137;51.550;7.060;2023-09-30T03:00:39;102266.03;;;11.37;90.45
6208;BME280;3137;51.550;7.060;2023-09-30T03:03:06;102265.19;;;11.36;90.74
6208;BME280;3137;51.550;7.060;2023-09-30T03:05:33;102252.75;;;11.35;91.23
6208;BME280;3137;51.550;7.060;2023-09-30T03:08:00;102258.97;;;11.36;91.40
6208;BME280;3137;51.550;7.060;2023-09-30T03:10:27;102258.00;;;11.37;91.58
6208;BME280;3137;51.550;7.060;2023-09-30T03:12:53;102266.03;;;11.37;91.55
6208;BME280;3137;51.550;7.060;2023-09-30T03:15:20;102256.03;;;11.39;91.63
6208;BME280;3137;51.550;7.060;2023-09-30T03:17:47;102251.19;;;11.44;91.68
6208;BME280;3137;51.550;7.060;2023-09-30T03:20:18;102249.47;;;11.43;91.65
6208;BME280;3137;51.550;7.060;2023-09-30T03:22:46;102256.78;;;11.41;91.60
6208;BME280;3137;51.550;7.060;2023-09-30T03:25:17;102253.00;;;11.43;91.77
6208;BME280;3137;51.550;7.060;2023-09-30T03:27:47;102251.53;;;11.51;91.72
6208;BME280;3137;51.550;7.060;2023-09-30T03:30:14;102258.00;;;11.48;91.12
6208;BME280;3137;51.550;7.060;2023-09-30T03:32:42;102252.06;;;11.67;89.56
6208;BME280;3137;51.550;7.060;2023-09-30T03:35:10;102251.53;;;11.51;89.51
6208;BME280;3137;51.550;7.060;2023-09-30T03:37:37;102254.97;;;11.53;89.37
6208;BME280;3137;51.550;7.060;2023-09-30T03:40:04;102246.53;;;11.35;89.95
6208;BME280;3137;51.550;7.060;2023-09-30T03:42:39;102243.72;;;11.25;90.51
6208;BME280;3137;51.550;7.060;2023-09-30T03:45:06;102238.63;;;11.22;90.79
6208;BME280;3137;51.550;7.060;2023-09-30T03:47:36;102230.84;;;11.19;90.91
6208;BME280;3137;51.550;7.060;2023-09-30T03:50:04;102234.38;;;11.20;91.24
6208;BME280;3137;51.550;7.060;2023-09-30T03:52:33;102250.19;;;11.23;91.50
6208;BME280;3137;51.550;7.060;2023-09-30T03:55:00;102249.22;;;11.24;91.66
6208;BME280;3137;51.550;7.060;2023-09-30T03:57:32;102245.53;;;11.25;91.54
6208;BME280;3137;51.550;7.060;2023-09-30T04:00:00;102254.06;;;11.30;91.69
6208;BME280;3137;51.550;7.060;2023-09-30T04:02:37;102246.81;;;11.65;89.63
6208;BME280;3137;51.550;7.060;2023-09-30T04:05:04;102242.69;;;11.61;88.70
6208;BME280;3137;51.550;7.060;2023-09-30T04:07:31;102251.66;;;11.38;89.30
6208;BME280;3137;51.550;7.060;2023-09-30T04:09:58;102246.75;;;11.21;89.92
6208;BME280;3137;51.550;7.060;2023-09-30T04:12:27;102244.56;;;11.15;90.34
6208;BME280;3137;51.550;7.060;2023-09-30T04:14:55;102241.16;;;11.13;90.80
6208;BME280;3137;51.550;7.060;2023-09-30T04:17:21;102237.41;;;11.15;91.05
6208;BME280;3137;51.550;7.060;2023-09-30T04:19:49;102236.19;;;11.19;91.46
6208;BME280;3137;51.550;7.060;2023-09-30T04:22:18;102236.91;;;11.21;91.37
6208;BME280;3137;51.550;7.060;2023-09-30T04:24:45;102231.34;;;11.24;91.54
6208;BME280;3137;51.550;7.060;2023-09-30T04:27:12;102241.03;;;11.25;91.86
6208;BME280;3137;51.550;7.060;2023-09-30T04:29:38;102236.69;;;11.24;91.73
6208;BME280;3137;51.550;7.060;2023-09-30T04:32:05;102241.91;;;11.26;91.78
6208;BME280;3137;51.550;7.060;2023-09-30T04:34:32;102252.38;;;11.29;91.80
6208;BME280;3137;51.550;7.060;2023-09-30T04:36:59;102262.00;;;11.31;91.90
6208;BME280;3137;51.550;7.060;2023-09-30T04:39:25;102260.78;;;11.35;92.16
6208;BME280;3137;51.550;7.060;2023-09-30T04:41:52;102260.69;;;11.37;92.10
6208;BME280;3137;51.550;7.060;2023-09-30T04:44:18;102263.13;;;11.40;92.45
6208;BME280;3137;51.550;7.060;2023-09-30T04:46:45;102264.81;;;11.41;92.14
6208;BME280;3137;51.550;7.060;2023-09-30T04:49:15;102270.41;;;11.38;92.20
6208;BME280;3137;51.550;7.060;2023-09-30T04:51:42;102268.72;;;11.37;92.20
6208;BME280;3137;51.550;7.060;2023-09-30T04:54:08;102270.53;;;11.36;92.36
6208;BME280;3137;51.550;7.060;2023-09-30T04:56:35;102275.03;;;11.36;92.50
6208;BME280;3137;51.550;7.060;2023-09-30T04:59:02;102277.56;;;11.37;92.42
6208;BME280;3137;51.550;7.060;2023-09-30T05:01:30;102276.50;;;11.40;92.19
6208;BME280;3137;51.550;7.060;2023-09-30T05:03:57;102288.31;;;11.49;91.41
6208;BME280;3137;51.550;7.060;2023-09-30T05:06:24;102284.66;;;11.38;91.03
6208;BME280;3137;51.550;7.060;2023-09-30T05:08:50;102282.91;;;11.26;91.14
6208;BME280;3137;51.550;7.060;2023-09-30T05:11:17;102282.56;;;11.20;91.20
6208;BME280;3137;51.550;7.060;2023-09-30T05:13:43;102282.91;;;11.15;91.27
6208;BME280;3137;51.550;7.060;2023-09-30T05:16:10;102290.19;;;11.13;91.37
6208;BME280;3137;51.550;7.060;2023-09-30T05:18:36;102297.06;;;11.28;90.93
6208;BME280;3137;51.550;7.060;2023-09-30T05:21:04;102291.53;;;11.19;90.77
6208;BME280;3137;51.550;7.060;2023-09-30T05:23:31;102289.66;;;11.08;90.92
6208;BME280;3137;51.550;7.060;2023-09-30T05:25:58;102286.53;;;11.03;90.95
6208;BME280;3137;51.550;7.060;2023-09-30T05:28:25;102293.69;;;11.03;91.04
6208;BME280;3137;51.550;7.060;2023-09-30T05:30:52;102291.88;;;11.03;91.18
6208;BME280;3137;51.550;7.060;2023-09-30T05:33:19;102294.41;;;11.05;91.31
6208;BME280;3137;51.550;7.060;2023-09-30T05:35:46;102293.34;;;11.07;91.35
6208;BME280;3137;51.550;7.060;2023-09-30T05:38:13;102294.69;;;11.13;91.42
6208;BME280;3137;51.550;7.060;2023-09-30T05:40:40;102300.78;;;11.15;91.53
6208;BME280;3137;51.550;7.060;2023-09-30T05:43:08;102301.50;;;11.17;91.70
6208;BME280;3137;51.550;7.060;2023-09-30T05:45:34;102297.63;;;11.21;91.63
6208;BME280;3137;51.550;7.060;2023-09-30T05:48:02;102283.66;;;11.28;91.82
6208;BME280;3137;51.550;7.060;2023-09-30T05:50:35;102292.53;;;11.29;91.50
6208;BME280;3137;51.550;7.060;2023-09-30T05:53:03;102297.78;;;11.30;91.70
6208;BME280;3137;51.550;7.060;2023-09-30T05:55:31;102298.63;;;11.31;92.08
6208;BME280;3137;51.550;7.060;2023-09-30T05:57:57;102292.19;;;11.33;91.99
6208;BME280;3137;51.550;7.060;2023-09-30T06:00:25;102291.09;;;11.36;91.77
6208;BME280;3137;51.550;7.060;2023-09-30T06:02:57;102290.84;;;11.39;91.96
6208;BME280;3137;51.550;7.060;2023-09-30T06:05:24;102287.22;;;11.40;92.14
6208;BME280;3137;51.550;7.060;2023-09-30T06:07:52;102290.75;;;11.40;92.29
6208;BME280;3137;51.550;7.060;2023-09-30T06:10:20;102286.25;;;11.41;92.17
6208;BME280;3137;51.550;7.060;2023-09-30T06:12:51;102299.63;;;11.41;92.10
6208;BME280;3137;51.550;7.060;2023-09-30T06:15:23;102307.31;;;11.45;92.13
6208;BME280;3137;51.550;7.060;2023-09-30T06:17:52;102298.28;;;11.46;92.15
6208;BME280;3137;51.550;7.060;2023-09-30T06:20:20;102294.41;;;11.51;92.25
6208;BME280;3137;51.550;7.060;2023-09-30T06:22:48;102294.19;;;11.54;92.28
6208;BME280;3137;51.550;7.060;2023-09-30T06:25:20;102298.19;;;11.59;92.01
6208;BME280;3137;51.550;7.060;2023-09-30T06:27:48;102301.63;;;11.61;92.32
6208;BME280;3137;51.550;7.060;2023-09-30T06:30:15;102316.38;;;11.67;92.14
6208;BME280;3137;51.550;7.060;2023-09-30T06:32:43;102319.66;;;11.70;91.95
6208;BME280;3137;51.550;7.060;2023-09-30T06:35:10;102309.78;;;11.71;92.54
6208;BME280;3137;51.550;7.060;2023-09-30T06:37:38;102316.66;;;11.75;92.47
6208;BME280;3137;51.550;7.060;2023-09-30T06:40:06;102309.22;;;11.78;92.20
6208;BME280;3137;51.550;7.060;2023-09-30T06:42:35;102314.94;;;11.85;92.49
6208;BME280;3137;51.550;7.060;2023-09-30T06:45:03;102321.66;;;11.90;92.27
6208;BME280;3137;51.550;7.060;2023-09-30T06:47:38;102323.81;;;11.97;92.31
6208;BME280;3137;51.550;7.060;2023-09-30T06:50:12;102318.84;;;12.03;92.42
6208;BME280;3137;51.550;7.060;2023-09-30T06:52:43;102328.94;;;12.11;92.34
6208;BME280;3137;51.550;7.060;2023-09-30T06:55:12;102344.56;;;12.17;92.61
6208;BME280;3137;51.550;7.060;2023-09-30T06:57:43;102332.47;;;12.22;92.70
6208;BME280;3137;51.550;7.060;2023-09-30T07:00:11;102331.88;;;12.30;92.49
6208;BME280;3137;51.550;7.060;2023-09-30T07:02:39;102322.47;;;12.35;92.49
6208;BME280;3137;51.550;7.060;2023-09-30T07:05:14;102328.06;;;12.44;92.60
6208;BME280;3137;51.550;7.060;2023-09-30T07:07:41;102334.66;;;12.51;92.75
6208;BME280;3137;51.550;7.060;2023-09-30T07:10:12;102344.38;;;12.63;92.23
6208;BME280;3137;51.550;7.060;2023-09-30T07:12:39;102345.72;;;12.68;92.38
6208;BME280;3137;51.550;7.060;2023-09-30T07:15:06;102347.00;;;12.74;92.58
6208;BME280;3137;51.550;7.060;2023-09-30T07:17:33;102354.31;;;12.94;92.45
6208;BME280;3137;51.550;7.060;2023-09-30T07:20:01;102351.72;;;12.93;92.51
6208;BME280;3137;51.550;7.060;2023-09-30T07:22:28;102359.13;;;13.00;92.49
6208;BME280;3137;51.550;7.060;2023-09-30T07:25:12;102368.38;;;13.07;92.29
6208;BME280;3137;51.550;7.060;2023-09-30T07:27:40;102371.56;;;13.12;92.84
6208;BME280;3137;51.550;7.060;2023-09-30T07:30:08;102362.63;;;13.23;92.35
6208;BME280;3137;51.550;7.060;2023-09-30T07:32:34;102377.81;;;13.65;90.88
6208;BME280;3137;51.550;7.060;2023-09-30T07:35:01;102383.69;;;13.59;91.10
6208;BME280;3137;51.550;7.060;2023-09-30T07:37:27;102386.25;;;13.82;90.73
6208;BME280;3137;51.550;7.060;2023-09-30T07:39:54;102383.88;;;13.88;90.14
6208;BME280;3137;51.550;7.060;2023-09-30T07:42:21;102389.59;;;13.95;90.58
6208;BME280;3137;51.550;7.060;2023-09-30T07:44:48;102401.19;;;13.95;91.12
6208;BME280;3137;51.550;7.060;2023-09-30T07:47:15;102401.88;;;14.18;89.48
6208;BME280;3137;51.550;7.060;2023-09-30T07:49:41;102403.75;;;14.27;89.26
6208;BME280;3137;51.550;7.060;2023-09-30T07:52:08;102404.09;;;14.34;88.19
6208;BME280;3137;51.550;7.060;2023-09-30T07:54:35;102397.31;;;14.39;88.15
6208;BME280;3137;51.550;7.060;2023-09-30T07:57:01;102404.91;;;14.34;88.24
6208;BME280;3137;51.550;7.060;2023-09-30T07:59:28;102415.19;;;14.40;88.37
6208;BME280;3137;51.550;7.060;2023-09-30T08:01:54;102406.91;;;14.62;87.77
6208;BME280;3137;51.550;7.060;2023-09-30T08:04:22;102407.19;;;14.59;86.79
6208;BME280;3137;51.550;7.060;2023-09-30T08:06:49;102406.59;;;14.56;86.95
6208;BME280;3137;51.550;7.060;2023-09-30T08:09:17;102405.19;;;14.61;86.68
6208;BME280;3137;51.550;7.060;2023-09-30T08:11:45;102411.31;;;14.73;87.36
6208;BME280;3137;51.550;7.060;2023-09-30T08:14:11;102409.91;;;14.79;86.13
6208;BME280;3137;51.550;7.060;2023-09-30T08:16:38;102406.53;;;14.86;86.55
6208;BME280;3137;51.550;7.060;2023-09-30T08:19:04;102408.53;;;14.94;86.47
6208;BME280;3137;51.550;7.060;2023-09-30T08:21:31;102415.78;;;15.03;85.89
6208;BME280;3137;51.550;7.060;2023-09-30T08:23:58;102425.44;;;15.15;84.66
6208;BME280;3137;51.550;7.060;2023-09-30T08:26:25;102418.50;;;15.13;85.06
6208;BME280;3137;51.550;7.060;2023-09-30T08:28:52;102421.78;;;15.26;86.31
6208;BME280;3137;51.550;7.060;2023-09-30T08:31:18;102417.94;;;15.28;85.03
6208;BME280;3137;51.550;7.060;2023-09-30T08:33:45;102425.31;;;15.26;83.78
6208;BME280;3137;51.550;7.060;2023-09-30T08:36:12;102427.56;;;15.21;83.06
6208;BME280;3137;51.550;7.060;2023-09-30T08:38:40;102429.84;;;15.26;82.98
6208;BME280;3137;51.550;7.060;2023-09-30T08:41:07;102433.84;;;15.31;84.04
6208;BME280;3137;51.550;7.060;2023-09-30T08:43:38;102425.16;;;15.37;83.59
6208;BME280;3137;51.550;7.060;2023-09-30T08:46:06;102422.63;;;15.45;82.42
6208;BME280;3137;51.550;7.060;2023-09-30T08:48:33;102422.09;;;15.51;82.53
6208;BME280;3137;51.550;7.060;2023-09-30T08:51:01;102418.13;;;15.56;82.72
6208;BME280;3137;51.550;7.060;2023-09-30T08:53:29;102415.00;;;15.70;83.22
6208;BME280;3137;51.550;7.060;2023-09-30T08:55:56;102421.22;;;15.80;82.86
6208;BME280;3137;51.550;7.060;2023-09-30T08:58:28;102408.72;;;15.79;81.66
6208;BME280;3137;51.550;7.060;2023-09-30T09:00:58;102410.28;;;15.81;82.51
6208;BME280;3137;51.550;7.060;2023-09-30T09:03:28;102409.88;;;15.76;79.01
6208;BME280;3137;51.550;7.060;2023-09-30T09:05:56;102398.63;;;15.90;81.40
6208;BME280;3137;51.550;7.060;2023-09-30T09:08:25;102390.38;;;15.92;79.76
6208;BME280;3137;51.550;7.060;2023-09-30T09:10:56;102384.53;;;16.06;77.44
6208;BME280;3137;51.550;7.060;2023-09-30T09:13:24;102390.25;;;15.93;79.64
6208;BME280;3137;51.550;7.060;2023-09-30T09:16:09;102385.41;;;15.97;79.31
6208;BME280;3137;51.550;7.060;2023-09-30T09:18:36;102384.81;;;16.03;79.42
6208;BME280;3137;51.550;7.060;2023-09-30T09:21:11;102385.06;;;16.10;80.31
6208;BME280;3137;51.550;7.060;2023-09-30T09:23:45;102392.69;;;16.61;78.30
6208;BME280;3137;51.550;7.060;2023-09-30T09:26:26;102398.75;;;16.72;77.25
6208;BME280;3137;51.550;7.060;2023-09-30T09:28:57;102402.06;;;16.66;77.25
6208;BME280;3137;51.550;7.060;2023-09-30T09:31:28;102404.91;;;16.65;75.12
6208;BME280;3137;51.550;7.060;2023-09-30T09:33:56;102405.50;;;16.86;74.63
6208;BME280;3137;51.550;7.060;2023-09-30T09:36:41;102399.94;;;16.87;74.89
6208;BME280;3137;51.550;7.060;2023-09-30T09:39:08;102392.28;;;16.83;73.71
6208;BME280;3137;51.550;7.060;2023-09-30T09:41:54;102385.94;;;16.74;73.96
6208;BME280;3137;51.550;7.060;2023-09-30T09:44:24;102383.88;;;16.86;73.63
6208;BME280;3137;51.550;7.060;2023-09-30T09:46:53;102392.69;;;16.88;72.57
6208;BME280;3137;51.550;7.060;2023-09-30T09:49:20;102394.84;;;16.84;74.76
6208;BME280;3137;51.550;7.060;2023-09-30T09:51:48;102392.59;;;16.80;75.54
6208;BME280;3137;51.550;7.060;2023-09-30T09:54:16;102390.22;;;16.95;72.64
6208;BME280;3137;51.550;7.060;2023-09-30T09:56:44;102394.81;;;17.29;71.46
6208;BME280;3137;51.550;7.060;2023-09-30T09:59:12;102388.69;;;17.45;71.70
6208;BME280;3137;51.550;7.060;2023-09-30T10:01:40;102396.03;;;17.35;67.90
6208;BME280;3137;51.550;7.060;2023-09-30T10:04:07;102389.53;;;17.28;66.96
6208;BME280;3137;51.550;7.060;2023-09-30T10:06:34;102398.97;;;17.24;64.86
6208;BME280;3137;51.550;7.060;2023-09-30T10:09:10;102397.88;;;17.17;67.31
6208;BME280;3137;51.550;7.060;2023-09-30T10:11:40;102403.97;;;17.01;68.90
6208;BME280;3137;51.550;7.060;2023-09-30T10:14:08;102423.06;;;17.17;69.85
6208;BME280;3137;51.550;7.060;2023-09-30T10:19:12;102419.19;;;17.20;70.33
6208;BME280;3137;51.550;7.060;2023-09-30T10:21:39;102412.25;;;17.35;68.38
6208;BME280;3137;51.550;7.060;2023-09-30T10:29:48;102411.81;;;17.40;69.43
6208;BME280;3137;51.550;7.060;2023-09-30T10:32:20;102413.34;;;17.42;68.47
6208;BME280;3137;51.550;7.060;2023-09-30T10:34:49;102419.34;;;17.54;67.59
6208;BME280;3137;51.550;7.060;2023-09-30T10:37:22;102430.03;;;17.55;67.15
6208;BME280;3137;51.550;7.060;2023-09-30T10:39:54;102429.44;;;17.87;64.76
6208;BME280;3137;51.550;7.060;2023-09-30T10:42:47;102425.06;;;17.86;68.01
6208;BME280;3137;51.550;7.060;2023-09-30T10:45:43;102414.78;;;17.90;65.72
6208;BME280;3137;51.550;7.060;2023-09-30T10:50:56;102420.47;;;17.87;63.67
6208;BME280;3137;51.550;7.060;2023-09-30T10:53:25;102422.44;;;17.76;65.48
6208;BME280;3137;51.550;7.060;2023-09-30T10:55:58;102417.81;;;17.51;67.86
6208;BME280;3137;51.550;7.060;2023-09-30T10:58:39;102422.28;;;17.43;66.59
6208;BME280;3137;51.550;7.060;2023-09-30T11:01:05;102408.59;;;17.44;66.75
6208;BME280;3137;51.550;7.060;2023-09-30T11:03:32;102404.53;;;17.58;67.32
6208;BME280;3137;51.550;7.060;2023-09-30T11:05:59;102394.81;;;17.65;64.85
6208;BME280;3137;51.550;7.060;2023-09-30T11:08:29;102402.25;;;17.53;64.49
6208;BME280;3137;51.550;7.060;2023-09-30T11:10:56;102402.75;;;17.66;66.57
6208;BME280;3137;51.550;7.060;2023-09-30T11:13:22;102402.47;;;17.69;66.03
6208;BME280;3137;51.550;7.060;2023-09-30T11:15:59;102403.75;;;17.48;65.71
6208;BME280;3137;51.550;7.060;2023-09-30T11:18:26;102389.53;;;17.46;64.42
6208;BME280;3137;51.550;7.060;2023-09-30T11:21:07;102377.41;;;17.50;64.03
6208;BME280;3137;51.550;7.060;2023-09-30T11:23:34;102374.94;;;17.56;65.05
6208;BME280;3137;51.550;7.060;2023-09-30T11:26:01;102370.97;;;17.86;66.57
6208;BME280;3137;51.550;7.060;2023-09-30T11:28:42;102374.66;;;18.11;63.29
6208;BME280;3137;51.550;7.060;2023-09-30T11:31:10;102379.97;;;17.95;63.46
6208;BME280;3137;51.550;7.060;2023-09-30T11:34:07;102366.31;;;18.04;63.64
6208;BME280;3137;51.550;7.060;2023-09-30T11:36:36;102367.25;;;17.95;63.91
6208;BME280;3137;51.550;7.060;2023-09-30T11:39:03;102372.19;;;18.00;64.65
6208;BME280;3137;51.550;7.060;2023-09-30T11:41:36;102372.56;;;18.05;64.08
6208;BME280;3137;51.550;7.060;2023-09-30T11:44:09;102378.84;;;17.79;64.90
6208;BME280;3137;51.550;7.060;2023-09-30T11:46:53;102381.03;;;17.58;65.28
6208;BME280;3137;51.550;7.060;2023-09-30T11:52:07;102388.75;;;17.35;69.15
6208;BME280;3137;51.550;7.060;2023-09-30T11:54:41;102381.53;;;17.18;69.46
6208;BME280;3137;51.550;7.060;2023-09-30T11:57:14;102378.03;;;17.08;68.35
6208;BME280;3137;51.550;7.060;2023-09-30T11:59:45;102374.94;;;17.03;69.06
6208;BME280;3137;51.550;7.060;2023-09-30T12:02:13;102378.03;;;17.08;68.87
6208;BME280;3137;51.550;7.060;2023-09-30T12:04:45;102381.19;;;17.04;69.61
6208;BME280;3137;51.550;7.060;2023-09-30T12:07:14;102376.34;;;17.07;70.43
6208;BME280;3137;51.550;7.060;2023-09-30T12:09:40;102371.25;;;17.40;69.12
6208;BME280;3137;51.550;7.060;2023-09-30T12:12:08;102364.72;;;17.50;67.04
6208;BME280;3137;51.550;7.060;2023-09-30T12:14:41;102350.69;;;17.47;68.65
6208;BME280;3137;51.550;7.060;2023-09-30T12:17:07;102347.31;;;17.53;67.72
6208;BME280;3137;51.550;7.060;2023-09-30T12:19:39;102350.56;;;17.74;67.19
6208;BME280;3137;51.550;7.060;2023-09-30T12:22:07;102336.22;;;17.73;66.50
6208;BME280;3137;51.550;7.060;2023-09-30T12:24:33;102336.03;;;17.75;66.21
6208;BME280;3137;51.550;7.060;2023-09-30T12:27:00;102323.16;;;17.69;67.17
6208;BME280;3137;51.550;7.060;2023-09-30T12:29:26;102320.78;;;18.00;63.79
6208;BME280;3137;51.550;7.060;2023-09-30T12:31:53;102314.44;;;18.17;60.33
6208;BME280;3137;51.550;7.060;2023-09-30T12:34:22;102321.72;;;18.16;61.42
6208;BME280;3137;51.550;7.060;2023-09-30T12:36:52;102330.00;;;18.15;61.74
6208;BME280;3137;51.550;7.060;2023-09-30T12:39:18;102327.91;;;18.01;62.54
6208;BME280;3137;51.550;7.060;2023-09-30T12:41:51;102325.34;;;17.99;64.17
6208;BME280;3137;51.550;7.060;2023-09-30T12:44:17;102327.00;;;17.92;63.74
6208;BME280;3137;51.550;7.060;2023-09-30T12:46:44;102330.91;;;17.90;65.30
6208;BME280;3137;51.550;7.060;2023-09-30T12:49:10;102335.53;;;18.05;63.17
6208;BME280;3137;51.550;7.060;2023-09-30T12:51:37;102342.03;;;18.20;62.54
6208;BME280;3137;51.550;7.060;2023-09-30T12:54:03;102327.34;;;18.23;61.82
6208;BME280;3137;51.550;7.060;2023-09-30T12:56:30;102320.88;;;18.16;62.98
6208;BME280;3137;51.550;7.060;2023-09-30T12:58:58;102323.63;;;17.90;62.55
6208;BME280;3137;51.550;7.060;2023-09-30T13:01:25;102321.88;;;17.81;62.70
6208;BME280;3137;51.550;7.060;2023-09-30T13:03:52;102323.50;;;17.74;65.57
6208;BME280;3137;51.550;7.060;2023-09-30T13:06:19;102331.03;;;17.88;64.25
6208;BME280;3137;51.550;7.060;2023-09-30T13:08:46;102331.34;;;18.11;62.44
6208;BME280;3137;51.550;7.060;2023-09-30T13:11:13;102318.78;;;18.02;64.44
6208;BME280;3137;51.550;7.060;2023-09-30T13:13:40;102320.22;;;17.88;64.75
6208;BME280;3137;51.550;7.060;2023-09-30T13:16:10;102312.81;;;17.90;64.62
6208;BME280;3137;51.550;7.060;2023-09-30T13:18:37;102310.81;;;18.00;65.31
6208;BME280;3137;51.550;7.060;2023-09-30T13:21:04;102306.84;;;17.87;63.46
6208;BME280;3137;51.550;7.060;2023-09-30T13:23:32;102302.72;;;18.08;64.13
6208;BME280;3137;51.550;7.060;2023-09-30T13:25:59;102291.22;;;18.06;64.70
6208;BME280;3137;51.550;7.060;2023-09-30T13:28:27;102292.44;;;18.12;65.74
6208;BME280;3137;51.550;7.060;2023-09-30T13:30:56;102294.00;;;18.22;63.83